Twin Springs, Nevada Weather observations

Data are for observation ending at time listed.
 Day   Time    Ave.   Ave.  Ave.  Vector   Max.   Stn.    Total    Solar   Ave.  
  of    of     Air    Rel.  Wind   Wind    Wind   Baro.  Precip.   Rad.    Soil  
Year   Day     Temp.  Hum.  Speed  Dir.    Gust   Pres.                    Temp. 
2015   (PST)    F      %     mph   deg.    mph     mb.     in.     W/m2     F   
------------------------------------------------------------------------------
 181    2:00   72.7    36    2.0   351      5.6    846     0.00       0    86.0
 181    3:00   70.7    37    4.1   342      8.9    846     0.00       0    85.1
 181    4:00  99999.0   99999  99999.0   99999    99999.0    99999    99999.00   99999    99999.0
 181    5:00   68.7    37    4.2   345      7.6    846     0.00      16    83.5
 181    6:00   70.3    42    2.8   315      5.5    847     0.00     113    82.7
 181    7:00   77.1    28    4.9   360      8.2    847     0.00     319    82.1
 181    8:00   82.8    25    5.5   302      9.2    847     0.00     632    82.0
 181    9:00   87.0    22    4.5   294      9.9    847     0.00     698    82.9
 181   10:00   93.1    16    1.3   302      6.8    846     0.00     850    84.5
 181   11:00   95.6    14    1.2   298      7.1    846     0.00     742    87.1
 181   12:00   93.3    17    5.2   250     22.6    846     0.00     508    90.0
 181   13:00  99999.0   99999  99999.0   99999    99999.0    99999    99999.00   99999    99999.0
 181   14:00  99999.0   99999  99999.0   99999    99999.0    99999    99999.00   99999    99999.0
 181   15:00  99999.0   99999  99999.0   99999    99999.0    99999    99999.00   99999    99999.0
 181   16:00   98.0    14    3.7   298     14.5    844     0.00     684    93.7
 181   17:00   97.1    14    5.4   304     13.6    843     0.00     462    94.3
 181   18:00   95.8    15    2.7   304     10.7    843     0.00     196    95.2
 181   19:00   93.6    15    5.9   336     23.6    843     0.00      54    95.4
 181   20:00   81.3    41    8.9   328     26.7    845     0.29       0    94.8
 181   21:00   71.1    74    3.2   309      7.8    847     0.07       0    93.3
 181   22:00   72.2    66    5.1   311     13.4    847     0.00       0    90.2
 181   23:00   71.8    64    3.1   285      9.1    847     0.00       0    87.5
 182    0:00   70.1    71    1.2   126      5.6    847     0.00       0    85.4
 182    1:00   69.7    73    1.7   154      4.0    846     0.00       0    83.6

Return to Twin Springs, Nevada graphs page.


Western Regional Climate Center,wrcc@dri.edu